createdAt,value
2023-10-13T00:04:02.847Z,1.263
2023-10-13T00:08:05.057Z,0
2023-10-13T00:10:06.060Z,0
2023-10-13T00:14:08.820Z,0.982
2023-10-13T00:20:12.232Z,2.106
2023-10-13T00:24:15.261Z,1.684
2023-10-13T00:26:17.064Z,0.421
2023-10-13T00:30:19.397Z,0
2023-10-13T00:34:21.821Z,0.28
2023-10-13T00:36:23.436Z,0
2023-10-13T00:39:09.005Z,0
2023-10-13T00:41:10.688Z,0
2023-10-13T00:45:13.114Z,0
2023-10-13T00:47:14.411Z,0
2023-10-13T00:49:15.425Z,0
2023-10-13T00:51:16.876Z,0
2023-10-13T00:57:20.494Z,0
2023-10-13T00:59:21.800Z,0
2023-10-13T01:03:23.628Z,0
2023-10-13T01:07:26.878Z,0
2023-10-13T01:13:30.770Z,0.561
2023-10-13T01:17:33.665Z,0
2023-10-13T01:23:45.835Z,0
2023-10-13T01:29:40.891Z,0
2023-10-13T01:33:44.102Z,0.14
2023-10-13T01:35:45.555Z,0.28
2023-10-13T01:39:49.117Z,0
2023-10-13T01:45:53.052Z,0
2023-10-13T01:49:56.190Z,0
2023-10-13T01:51:57.843Z,0
2023-10-13T01:56:00.040Z,0
2023-10-13T02:00:02.522Z,0
2023-10-13T02:02:03.836Z,0
2023-10-13T02:06:05.975Z,0
2023-10-13T02:12:10.737Z,0
2023-10-13T02:16:13.410Z,0
2023-10-13T02:18:15.050Z,0.28
2023-10-13T02:22:18.480Z,0
2023-10-13T02:28:22.853Z,0
2023-10-13T02:32:25.617Z,0
2023-10-13T02:34:27.373Z,0
2023-10-13T02:38:29.593Z,0
2023-10-13T02:42:31.981Z,0
2023-10-13T02:44:33.023Z,0
2023-10-13T02:48:35.183Z,0
2023-10-13T02:52:38.131Z,0
2023-10-13T02:54:39.940Z,0
2023-10-13T02:58:42.392Z,0
2023-10-13T03:00:43.358Z,0
2023-10-13T03:04:45.754Z,0
2023-10-13T03:10:49.578Z,0
2023-10-13T03:16:53.866Z,0
2023-10-13T03:20:55.827Z,0
2023-10-13T03:26:59.782Z,0
2023-10-13T03:31:02.769Z,0
2023-10-13T03:33:04.503Z,1.123
2023-10-13T03:37:07.824Z,0
2023-10-13T03:41:10.764Z,0
2023-10-13T03:43:12.427Z,0
2023-10-13T03:47:16.738Z,0
2023-10-13T03:53:19.505Z,0
2023-10-13T03:57:22.308Z,1.404
2023-10-13T03:59:23.491Z,0.14
2023-10-13T04:03:27.274Z,0
2023-10-13T04:09:31.407Z,0
2023-10-13T04:13:34.608Z,0.982
2023-10-13T04:15:36.167Z,0.14
2023-10-13T04:19:38.100Z,0.28
2023-10-13T04:23:41.189Z,0
2023-10-13T04:25:42.658Z,0
2023-10-13T04:29:46.596Z,0.982
2023-10-13T04:35:59.704Z,1.263
2023-10-13T04:39:53.141Z,1.404
2023-10-13T04:41:54.205Z,0.28
2023-10-13T04:45:56.645Z,2.948
2023-10-13T04:52:00.807Z,0
2023-10-13T04:58:04.066Z,0
2023-10-13T05:02:06.995Z,0
2023-10-13T05:08:10.882Z,0
2023-10-13T05:12:13.115Z,0
2023-10-13T05:14:14.190Z,0
2023-10-13T05:18:16.700Z,0
2023-10-13T05:22:19.288Z,0
2023-10-13T05:24:20.995Z,0
2023-10-13T05:28:34.693Z,0
2023-10-13T05:34:27.918Z,0.14
2023-10-13T05:40:31.761Z,0
2023-10-13T05:44:33.801Z,0
2023-10-13T05:50:37.444Z,0
2023-10-13T05:54:39.922Z,0
2023-10-13T05:56:41.804Z,0
2023-10-13T06:00:45.048Z,0
2023-10-13T06:04:49.868Z,0
2023-10-13T06:06:48.941Z,0
2023-10-13T06:10:50.920Z,0
2023-10-13T06:16:54.673Z,0
2023-10-13T06:20:57.245Z,0
2023-10-13T06:22:58.699Z,0
2023-10-13T06:27:01.411Z,0
2023-10-13T06:33:05.615Z,0
2023-10-13T06:37:08.554Z,0
2023-10-13T06:39:10.349Z,0
2023-10-13T06:43:13.399Z,0
2023-10-13T06:47:16.052Z,0
2023-10-13T06:49:17.469Z,0
2023-10-13T06:53:20.350Z,0
2023-10-13T06:57:22.327Z,0.14
2023-10-13T06:59:23.804Z,0
2023-10-13T07:03:26.895Z,0
2023-10-13T07:05:28.328Z,0
2023-10-13T07:07:29.941Z,0
2023-10-13T07:09:30.793Z,0
2023-10-13T07:15:34.592Z,0
2023-10-13T07:17:35.588Z,0
2023-10-13T07:21:37.657Z,0
2023-10-13T07:26:24.063Z,0
2023-10-13T07:30:27.203Z,0
2023-10-13T07:32:28.712Z,0
2023-10-13T07:36:30.497Z,0
2023-10-13T07:40:33.021Z,0.14
2023-10-13T07:42:33.986Z,0.14
2023-10-13T07:46:36.377Z,0.561
2023-10-13T07:52:41.296Z,0
2023-10-13T07:56:44.678Z,0
2023-10-13T07:58:45.547Z,0.842
2023-10-13T08:02:48.732Z,0.28
2023-10-13T08:08:52.377Z,0.28
2023-10-13T08:12:54.189Z,1.544
2023-10-13T08:14:55.847Z,2.527
2023-10-13T08:18:59.420Z,2.808
2023-10-13T08:23:04.048Z,2.106
2023-10-13T08:25:03.392Z,4.492
2023-10-13T08:29:06.236Z,2.386
2023-10-13T08:33:08.748Z,4.492
2023-10-13T08:35:10.218Z,5.616
2023-10-13T08:39:12.622Z,4.633
2023-10-13T08:41:13.789Z,1.544
2023-10-13T08:43:14.679Z,3.65
2023-10-13T08:45:16.035Z,5.756
2023-10-13T08:51:21.254Z,5.475
2023-10-13T08:53:22.031Z,3.51
2023-10-13T08:57:24.078Z,2.386
2023-10-13T09:01:27.170Z,6.458
2023-10-13T09:07:31.939Z,4.633
2023-10-13T09:11:34.530Z,4.633
2023-10-13T09:13:35.892Z,2.386
2023-10-13T09:17:38.555Z,2.948
2023-10-13T09:21:41.883Z,3.229
2023-10-13T09:23:43.294Z,3.51
2023-10-13T09:27:45.685Z,6.037
2023-10-13T09:33:50.214Z,4.352
2023-10-13T09:37:52.675Z,3.369
2023-10-13T09:39:53.560Z,4.773
2023-10-13T09:43:56.727Z,5.896
2023-10-13T09:50:01.225Z,4.633
2023-10-13T09:54:22.391Z,5.054
2023-10-13T09:56:04.686Z,5.335
2023-10-13T10:00:06.802Z,5.756
2023-10-13T10:04:09.402Z,5.616
2023-10-13T10:06:11.031Z,4.071
2023-10-13T10:10:12.688Z,8.564
2023-10-13T10:16:16.598Z,9.406
2023-10-13T10:20:19.170Z,10.389
2023-10-13T10:22:20.374Z,4.212
2023-10-13T10:26:22.456Z,2.246
2023-10-13T10:32:26.048Z,3.369
2023-10-13T10:38:29.845Z,3.369
2023-10-13T10:42:31.811Z,10.53
2023-10-13T10:48:36.552Z,3.51
2023-10-13T10:52:38.838Z,2.808
2023-10-13T10:54:40.531Z,3.51
2023-10-13T10:58:42.678Z,4.773
2023-10-13T11:02:44.744Z,4.352
2023-10-13T11:04:47.451Z,6.739
2023-10-13T11:08:49.966Z,6.037
2023-10-13T11:14:54.452Z,10.67
2023-10-13T11:20:58.963Z,2.667
2023-10-13T11:25:00.729Z,6.458
2023-10-13T11:31:05.600Z,5.756
2023-10-13T11:35:07.945Z,4.633
2023-10-13T11:37:09.117Z,6.458
2023-10-13T11:41:12.301Z,8.704
2023-10-13T11:45:13.801Z,4.773
2023-10-13T11:47:14.704Z,4.071
2023-10-13T11:51:16.330Z,9.406
2023-10-13T11:57:20.120Z,6.037
2023-10-13T12:01:22.753Z,7.16
2023-10-13T12:03:24.324Z,0.702
2023-10-13T12:07:27.619Z,6.739
2023-10-13T12:13:30.721Z,7.581
2023-10-13T12:19:34.923Z,6.318
2023-10-13T12:23:37.608Z,7.722
2023-10-13T12:27:40.929Z,4.914
2023-10-13T12:29:41.842Z,3.088
2023-10-13T12:33:45.431Z,8.143
2023-10-13T12:37:48.093Z,4.914
2023-10-13T12:39:49.163Z,7.441
2023-10-13T12:43:51.104Z,10.108
2023-10-13T12:45:52.005Z,4.071
2023-10-13T12:49:54.721Z,3.931
2023-10-13T12:55:58.617Z,5.335
2023-10-13T13:02:02.052Z,9.547
2023-10-13T13:06:05.269Z,1.825
2023-10-13T13:12:08.531Z,1.684
2023-10-13T13:16:11.529Z,2.246
2023-10-13T13:18:13.366Z,10.389
2023-10-13T13:22:16.012Z,3.931
2023-10-13T13:26:18.327Z,5.054
2023-10-13T13:28:19.188Z,6.318
2023-10-13T13:30:28.785Z,5.756
2023-10-13T13:32:21.531Z,4.071
2023-10-13T13:38:25.861Z,6.598
2023-10-13T13:42:28.854Z,9.406
2023-10-13T13:44:30.199Z,6.879
2023-10-13T13:48:33.655Z,1.965
2023-10-13T13:54:37.702Z,3.79
2023-10-13T13:58:40.010Z,3.229
2023-10-13T14:00:41.089Z,6.037
2023-10-13T14:04:43.894Z,5.194
2023-10-13T14:08:46.889Z,1.684
2023-10-13T14:09:30.524Z,7.722
2023-10-13T14:13:32.440Z,8.985
2023-10-13T14:15:33.572Z,4.212
2023-10-13T14:19:36.019Z,5.194
2023-10-13T14:21:37.089Z,3.79
2023-10-13T14:25:40.384Z,2.246
2023-10-13T14:31:44.457Z,6.037
2023-10-13T14:33:46.024Z,1.965
2023-10-13T14:37:47.792Z,3.65
2023-10-13T14:41:50.630Z,3.229
2023-10-13T14:47:55.365Z,2.808
2023-10-13T14:51:58.160Z,5.475
2023-10-13T14:53:58.953Z,3.65
2023-10-13T14:58:02.009Z,1.825
2023-10-13T15:02:04.706Z,6.037
2023-10-13T15:04:06.486Z,2.527
2023-10-13T15:08:09.239Z,4.492
2023-10-13T15:14:13.736Z,1.544
2023-10-13T15:18:18.131Z,4.492
2023-10-13T15:20:17.709Z,1.544
2023-10-13T15:30:24.396Z,6.318
2023-10-13T15:34:26.595Z,3.369
2023-10-13T15:36:27.487Z,0.842
2023-10-13T15:40:29.878Z,1.684
2023-10-13T15:42:31.608Z,0.702
2023-10-13T15:50:36.382Z,0
2023-10-13T15:54:38.543Z,0.702
2023-10-13T15:56:40.073Z,0.14
2023-10-13T16:00:42.910Z,3.79
2023-10-13T16:02:44.191Z,0
2023-10-13T16:06:47.211Z,0
2023-10-13T16:12:50.934Z,0
2023-10-13T16:18:54.404Z,0.702
2023-10-13T16:22:57.283Z,0
2023-10-13T16:29:01.462Z,0.982
2023-10-13T16:33:03.872Z,1.404
2023-10-13T16:35:05.188Z,0
2023-10-13T16:39:07.917Z,0
2023-10-13T16:43:10.348Z,0
2023-10-13T16:45:11.138Z,0
2023-10-13T16:49:21.352Z,0
2023-10-13T16:55:16.901Z,0
2023-10-13T16:59:19.291Z,0
2023-10-13T17:01:20.483Z,0
2023-10-13T17:05:23.037Z,0.14
2023-10-13T17:11:26.183Z,0.561
2023-10-13T17:15:28.076Z,3.229
2023-10-13T17:17:29.165Z,1.263
2023-10-13T17:21:31.954Z,1.825
2023-10-13T17:25:35.010Z,0.14
2023-10-13T17:27:35.908Z,1.263
2023-10-13T17:31:38.736Z,0
2023-10-13T17:35:42.048Z,0
2023-10-13T17:37:43.706Z,0
2023-10-13T17:41:46.727Z,0.14
2023-10-13T17:43:48.222Z,0
2023-10-13T17:47:51.398Z,0
2023-10-13T17:53:55.550Z,0.702
2023-10-13T17:59:58.807Z,1.684
2023-10-13T18:04:00.573Z,0
2023-10-13T18:10:04.329Z,0
2023-10-13T18:14:06.171Z,0
2023-10-13T18:16:08.063Z,0
2023-10-13T18:20:11.395Z,2.106
2023-10-13T18:24:13.764Z,0
2023-10-13T18:26:14.631Z,0
2023-10-13T18:30:17.946Z,0
2023-10-13T18:36:22.112Z,0
2023-10-13T18:42:25.900Z,0
2023-10-13T18:46:29.051Z,0
2023-10-13T18:52:33.247Z,0.14
2023-10-13T18:56:35.948Z,2.386
2023-10-13T18:58:36.870Z,0.982
2023-10-13T19:02:39.872Z,1.263
2023-10-13T19:06:42.360Z,1.965
2023-10-13T19:08:43.485Z,0.702
2023-10-13T19:12:45.466Z,2.948
2023-10-13T19:14:46.408Z,1.544
2023-10-13T19:18:49.327Z,2.527
2023-10-13T19:24:53.946Z,0.842
2023-10-13T19:28:56.814Z,1.684
2023-10-13T19:30:58.304Z,0.421
2023-10-13T19:35:00.952Z,0.28
2023-10-13T19:39:06.683Z,2.106
2023-10-13T19:41:05.402Z,1.544
2023-10-13T19:45:07.263Z,0.842
2023-10-13T19:51:12.127Z,5.756
2023-10-13T19:55:15.073Z,5.054
2023-10-13T19:57:16.760Z,1.404
2023-10-13T20:01:19.415Z,4.773
2023-10-13T20:07:23.531Z,3.65
2023-10-13T20:11:26.026Z,3.51
2023-10-13T20:13:27.797Z,2.948
2023-10-13T20:17:30.243Z,2.246
2023-10-13T20:21:32.838Z,4.773
2023-10-13T20:23:33.861Z,3.79
2023-10-13T20:27:36.455Z,2.106
2023-10-13T20:31:39.066Z,3.369
2023-10-13T20:33:39.886Z,6.879
2023-10-13T20:37:42.381Z,5.756
2023-10-13T20:39:43.667Z,5.475
2023-10-13T20:41:44.737Z,6.879
2023-10-13T20:43:46.113Z,3.65
2023-10-13T20:49:49.717Z,6.739
2023-10-13T20:54:35.384Z,4.773
2023-10-13T21:00:38.817Z,5.616
2023-10-13T21:04:41.125Z,4.633
2023-10-13T21:06:42.345Z,5.756
2023-10-13T21:10:45.257Z,2.386
2023-10-13T21:14:48.152Z,4.212
2023-10-13T21:16:49.980Z,1.684
2023-10-13T21:20:52.566Z,1.965
2023-10-13T21:26:56.813Z,0.421
2023-10-13T21:30:59.269Z,0.842
2023-10-13T21:33:00.268Z,0.28
2023-10-13T21:37:02.730Z,0
2023-10-13T21:43:06.999Z,0.982
2023-10-13T21:47:09.662Z,0
2023-10-13T21:49:10.952Z,3.369
2023-10-13T21:53:13.667Z,1.965
2023-10-13T21:57:16.070Z,0.982
2023-10-13T21:59:17.134Z,0
2023-10-13T22:03:19.947Z,0
2023-10-13T22:07:23.277Z,1.404
2023-10-13T22:09:24.458Z,1.544
2023-10-13T22:13:27.092Z,0.842
2023-10-13T22:15:28.308Z,2.246
2023-10-13T22:17:29.722Z,0.561
2023-10-13T22:19:31.537Z,1.544
2023-10-13T22:25:35.131Z,3.65
2023-10-13T22:31:38.560Z,2.667
2023-10-13T22:35:41.935Z,5.475
2023-10-13T22:37:43.342Z,1.263
2023-10-13T22:41:46.546Z,3.931
2023-10-13T22:45:48.555Z,2.106
2023-10-13T22:47:50.012Z,5.616
2023-10-13T22:51:52.208Z,4.773
2023-10-13T22:55:54.436Z,3.65
2023-10-13T22:57:56.239Z,6.458
2023-10-13T23:01:59.117Z,6.318
2023-10-13T23:08:02.220Z,7.16
2023-10-13T23:12:04.540Z,4.773
2023-10-13T23:14:05.703Z,8.845
2023-10-13T23:18:08.904Z,8.564
2023-10-13T23:24:13.232Z,3.369
2023-10-13T23:30:16.849Z,3.931
2023-10-13T23:34:19.365Z,5.616
2023-10-13T23:40:23.363Z,4.914
2023-10-13T23:44:26.004Z,4.071
2023-10-13T23:50:29.765Z,6.598
2023-10-13T23:54:32.808Z,3.79
2023-10-13T23:56:34.649Z,8.704
